Latest Weather Observations for Lucinda

IDQ60801

Issued at 7:02 am EST Sunday 30 April 2017 (issued every 30 minutes, with the page automatically refreshed every 10 minutes)

About weather observations | Map of weather stations | Latest weather observations for QLD | Other Formats
Station Details ID: 032141 Name: LUCINDA POINT Lat: -18.52 Lon: 146.39 Height: 10.0 m
Data from the previous 72 hours. | See also: Recent months at Lucinda
Date/Time
EST
Temp
°C
App
Temp
°C
Dew
Point
°C
Rel
Hum
%
Delta-T
°C
Wind Press
QNH
hPa
Press
MSL
hPa
Rain since
9am
mm
Dir  Spd
km/h
Gust
km/h
Spd
kts
Gust
kts
30/07:00am 19.1 17.0 14.8 76 2.5 WSW 19 22 10 12 1016.3 1016.3 0.0
30/06:30am 19.1 16.5 14.8 76 2.5 SW 22 24 12 13 1015.9 1015.8 0.0
30/06:00am 19.0 16.3 13.4 70 3.2 WSW 20 24 11 13 1015.7 1015.6 0.0
30/05:30am 19.0 16.2 13.2 69 3.3 SW 20 26 11 14 1015.5 1015.4 0.0
30/05:00am 19.0 16.7 14.7 76 2.5 WSW 20 22 11 12 1015.2 1015.1 0.0
30/04:30am 19.1 17.3 16.0 82 1.8 SW 20 22 11 12 1015.1 1015.0 0.0
30/04:00am 19.4 17.5 15.1 76 2.5 SW 19 20 10 11 1015.1 1015.0 0.0
30/03:30am 19.0 17.3 14.7 76 2.5 SW 17 20 9 11 1015.2 1015.1 0.0
30/03:00am 18.9 16.4 13.5 71 3.1 WSW 19 22 10 12 1015.1 1015.0 0.0
30/02:30am 19.5 16.3 13.2 67 3.6 WSW 22 26 12 14 1015.4 1015.3 0.0
30/02:00am 20.0 17.3 13.5 66 3.7 WSW 20 22 11 12 1015.4 1015.3 0.0
30/01:30am 20.6 17.6 13.8 65 3.9 WSW 22 24 12 13 1015.8 1015.7 0.0
30/01:00am 20.6 18.1 14.0 66 3.8 WSW 20 24 11 13 1016.0 1016.0 0.0
30/12:30am 20.2 17.1 13.4 65 3.9 WSW 22 24 12 13 1016.2 1016.2 0.0
30/12:00am 20.6 16.8 11.2 55 5.2 WSW 22 24 12 13 1016.5 1016.5 0.0
 
Date/Time
EST
Temp
°C
App
Temp
°C
Dew
Point
°C
Rel
Hum
%
Delta-T
°C
Wind Press
QNH
hPa
Press
MSL
hPa
Rain since
9am
mm
Dir  Spd
km/h
Gust
km/h
Spd
kts
Gust
kts
29/11:30pm 20.4 17.1 12.9 62 4.3 WSW 22 24 12 13 1016.8 1016.8 0.0
29/11:00pm 20.0 17.0 12.5 62 4.2 WSW 20 24 11 13 1016.9 1016.9 0.0
29/10:30pm 20.3 18.0 13.0 63 4.1 SW 17 19 9 10 1016.9 1016.9 0.0
29/10:00pm 20.8 19.0 14.5 67 3.7 WSW 17 19 9 10 1016.7 1016.7 0.0
29/09:30pm 21.8 20.5 13.7 60 4.7 WSW 13 17 7 9 1016.7 1016.7 0.0
29/09:00pm 23.0 22.3 12.0 50 6.2 SSE 7 11 4 6 1016.8 1016.8 0.0
29/08:30pm 23.0 22.3 11.4 48 6.5 SSE 6 9 3 5 1016.7 1016.7 0.0
29/08:00pm 23.1 22.1 10.9 46 6.8 S 7 11 4 6 1016.5 1016.5 0.0
29/07:30pm 23.0 21.2 9.4 42 7.3 SE 9 13 5 7 1016.1 1016.1 0.0
29/07:00pm 22.9 21.3 10.3 45 6.9 SSW 9 15 5 8 1015.8 1015.7 0.0
29/06:30pm 22.9 21.5 11.0 47 6.6 SSE 9 15 5 8 1015.6 1015.5 0.0
29/06:00pm 22.9 20.9 10.3 45 6.9 ESE 11 17 6 9 1015.3 1015.2 0.0
29/05:30pm 23.2 20.9 10.3 44 7.1 ESE 13 17 7 9 1015.1 1015.0 0.0
29/05:00pm 23.8 21.4 8.6 38 8.1 SE 11 19 6 10 1014.7 1014.6 0.0
29/04:30pm 24.0 21.5 8.0 36 8.5 E 11 19 6 10 1014.5 1014.4 0.0
29/04:00pm 23.9 20.8 7.1 34 8.7 SE 13 20 7 11 1014.3 1014.2 0.0
29/03:30pm 23.4 20.2 6.7 34 8.6 ESE 13 20 7 11 1014.3 1014.2 0.0
29/03:00pm 24.0 21.3 8.8 38 8.2 SE 13 20 7 11 1014.5 1014.4 0.0
29/02:30pm 23.9 21.8 8.3 37 8.3 ESE 9 15 5 8 1014.7 1014.6 0.0
29/02:00pm 23.3 21.4 9.0 40 7.7 S 9 17 5 9 1015.0 1014.9 0.0
29/01:30pm 23.1 19.8 9.5 42 7.4 S 17 20 9 11 1015.3 1015.2 0.0
29/01:00pm 22.7 19.5 9.8 44 7.0 S 17 22 9 12 1015.8 1015.7 0.0
29/12:30pm 22.6 19.3 9.7 44 7.0 S 17 22 9 12 1016.2 1016.2 0.0
29/12:00pm 22.4 19.3 10.2 46 6.6 S 17 22 9 12 1016.4 1016.4 0.0
29/11:30am 22.3 19.1 11.4 50 6.1 S 19 26 10 14 1016.9 1016.9 0.0
29/11:00am 22.1 17.9 9.9 46 6.6 S 22 28 12 15 1017.4 1017.4 0.0
29/10:30am 22.0 18.3 10.2 47 6.4 S 20 26 11 14 1017.7 1017.7 0.0
29/10:00am 21.2 18.6 13.1 60 4.6 SSW 19 24 10 13 1017.8 1017.8 0.0
29/09:30am 20.5 17.5 12.5 60 4.5 SSW 20 26 11 14 1018.0 1018.0 0.0
29/09:00am 20.2 17.1 12.2 60 4.5 SSW 20 24 11 13 1017.7 1017.7 0.0
29/08:30am 19.7 16.5 12.0 61 4.3 SW 20 24 11 13 1017.3 1017.3 0.0
29/08:00am 19.9 16.8 13.4 66 3.7 SW 22 24 12 13 1017.1 1017.1 0.0
29/07:30am 20.3 17.0 11.5 57 4.9 SW 20 24 11 13 1016.8 1016.8 0.0
29/07:00am 19.6 16.6 12.4 63 4.0 SW 20 24 11 13 1016.5 1016.5 0.0
29/06:30am 18.7 15.9 12.7 68 3.4 WSW 19 20 10 11 1016.1 1016.1 0.0
29/06:00am 19.1 16.2 12.8 67 3.5 SW 20 22 11 12 1015.7 1015.6 0.0
29/05:30am 19.7 16.6 11.7 60 4.4 SW 19 22 10 12 1015.4 1015.3 0.0
29/05:00am 18.6 15.9 13.5 72 2.9 SW 20 22 11 12 1015.3 1015.2 0.0
29/04:30am 18.9 16.9 14.0 73 2.8 SW 17 20 9 11 1015.3 1015.2 0.0
29/04:00am 18.9 16.6 12.9 68 3.4 SW 17 20 9 11 1015.3 1015.2 0.0
29/03:30am 19.6 17.2 13.8 69 3.3 SW 19 20 10 11 1015.4 1015.3 0.0
29/03:00am 19.7 17.1 13.9 69 3.3 SW 20 24 11 13 1015.3 1015.2 0.0
29/02:30am 19.8 17.0 14.4 71 3.1 SW 22 26 12 14 1015.4 1015.3 0.0
29/02:00am 21.3 17.6 12.7 58 4.9 SSW 24 28 13 15 1015.6 1015.5 0.0
29/01:30am 20.6 18.3 15.6 73 3.0 SW 22 24 12 13 1015.8 1015.7 0.0
29/01:00am 20.9 18.7 15.0 69 3.5 SW 20 24 11 13 1016.1 1016.1 0.0
29/12:30am 20.8 19.4 15.6 72 3.1 SW 17 20 9 11 1016.2 1016.2 0.0
29/12:00am 20.6 18.4 14.9 70 3.3 SW 20 22 11 12 1016.5 1016.5 0.0
 
Date/Time
EST
Temp
°C
App
Temp
°C
Dew
Point
°C
Rel
Hum
%
Delta-T
°C
Wind Press
QNH
hPa
Press
MSL
hPa
Rain since
9am
mm
Dir  Spd
km/h
Gust
km/h
Spd
kts
Gust
kts
28/11:30pm 21.0 19.0 14.9 68 3.6 WSW 19 20 10 11 1016.4 1016.4 0.0
28/11:00pm 21.2 19.0 14.8 67 3.8 SW 20 20 11 11 1016.5 1016.5 0.0
28/10:30pm 22.1 21.5 15.7 67 3.8 SW 13 19 7 10 1016.4 1016.4 0.0
28/10:00pm 23.7 22.6 12.0 48 6.6 S 9 13 5 7 1016.4 1016.4 0.0
28/09:30pm 23.7 22.5 11.7 47 6.8 SE 9 17 5 9 1016.2 1016.2 0.0
28/09:00pm 23.6 22.7 12.6 50 6.3 SE 9 17 5 9 1016.1 1016.1 0.0
28/08:30pm 23.5 22.4 11.9 48 6.6 ESE 9 13 5 7 1016.0 1016.0 0.0
28/08:00pm 23.5 22.4 11.9 48 6.6 SE 9 15 5 8 1015.6 1015.5 0.0
28/07:30pm 23.5 22.0 11.9 48 6.6 ESE 11 17 6 9 1015.2 1015.1 0.0
28/07:00pm 23.5 22.2 11.2 46 6.9 SE 9 17 5 9 1014.8 1014.7 0.0
28/06:30pm 23.8 22.0 12.1 48 6.6 ESE 13 20 7 11 1014.3 1014.2 0.0
28/06:00pm 23.7 21.6 11.1 45 7.0 E 13 17 7 9 1014.0 1013.9 0.0
28/05:30pm 23.8 21.8 11.5 46 6.9 E 13 19 7 10 1013.7 1013.6 0.0
28/05:00pm 24.6 22.4 10.8 42 7.7 ESE 13 20 7 11 1013.6 1013.5 0.0
28/04:30pm 24.2 21.2 10.8 43 7.5 E 17 22 9 12 1013.3 1013.2 0.0
28/04:00pm 24.4 21.7 8.8 37 8.4 ESE 13 19 7 10 1013.2 1013.1 0.0
28/03:30pm 24.9 22.5 8.8 36 8.7 ESE 11 19 6 10 1013.1 1013.0 0.0
28/03:00pm 25.1 22.7 8.6 35 8.9 SE 11 17 6 9 1013.2 1013.1 0.0
28/02:30pm 24.4 21.9 9.6 39 8.1 SE 13 20 7 11 1013.3 1013.2 0.0
28/02:00pm 23.7 21.4 8.9 39 7.9 S 11 17 6 9 1013.6 1013.5 0.0
28/01:30pm 23.3 19.7 9.7 42 7.4 S 19 22 10 12 1014.0 1013.9 0.0
28/01:00pm 22.9 18.4 7.1 36 8.2 S 20 28 11 15 1014.6 1014.5 0.0
28/12:30pm 22.8 18.8 9.2 42 7.3 S 20 24 11 13 1015.1 1015.0 0.0
28/12:00pm 22.9 19.1 9.7 43 7.2 S 20 24 11 13 1015.6 1015.5 0.0
28/11:30am 22.6 17.8 9.0 42 7.3 S 24 30 13 16 1016.1 1016.1 0.0
28/11:00am 22.2 16.1 8.3 41 7.3 S 30 33 16 18 1016.8 1016.8 0.0
28/10:30am 22.0 16.4 8.9 43 7.0 S 28 37 15 20 1017.2 1017.2 0.0
28/10:00am 22.0 15.7 8.9 43 7.0 S 32 41 17 22 1017.4 1017.4 0.0
28/09:30am 22.0 15.5 8.2 41 7.2 S 32 39 17 21 1017.4 1017.4 0.0
28/09:00am 21.9 16.6 6.6 37 7.8 SSW 24 35 13 19 1017.3 1017.3 0.0
28/08:30am 21.2 17.4 9.8 48 6.1 SW 20 26 11 14 1017.1 1017.1 0.0
28/08:00am 21.3 16.6 9.2 46 6.4 SW 24 30 13 16 1016.8 1016.8 0.0
28/07:30am 21.9 16.0 9.1 44 6.8 SSW 30 39 16 21 1016.5 1016.5 0.0
28/07:00am 22.5 17.5 7.9 39 7.6 SSW 24 32 13 17 1016.3 1016.3 0.0
28/06:30am 21.6 16.7 7.1 39 7.4 SW 22 26 12 14 1015.9 1015.8 0.0
28/06:00am 21.8 17.4 9.0 44 6.8 SW 22 28 12 15 1015.5 1015.4 0.0
28/05:30am 21.8 16.8 8.0 41 7.2 SW 24 30 13 16 1015.1 1015.0 0.0
28/05:00am 21.6 17.4 11.0 51 5.8 SW 24 28 13 15 1014.7 1014.6 0.0
28/04:30am 22.2 16.9 10.0 46 6.6 SW 28 35 15 19 1014.6 1014.5 0.0
28/04:00am 24.0 17.0 5.8 31 9.3 SSW 32 41 17 22 1014.4 1014.3 0.0
28/03:30am 24.1 17.3 7.7 35 8.6 SSW 33 39 18 21 1014.3 1014.2 0.0
28/03:00am 24.3 16.4 7.9 35 8.7 SSW 39 43 21 23 1014.1 1014.0 0.0
28/02:30am 24.8 17.2 9.1 37 8.5 S 39 48 21 26 1013.9 1013.8 0.0
28/02:00am 25.1 16.1 9.0 36 8.7 S 46 56 25 30 1013.9 1013.8 0.0
28/01:30am 25.6 16.2 8.6 34 9.2 S 48 54 26 29 1013.8 1013.7 0.0
28/01:00am 26.0 17.3 9.8 36 8.9 S 46 52 25 28 1013.9 1013.8 0.0
28/12:30am 26.6 18.8 8.1 31 10.0 S 39 46 21 25 1014.1 1014.0 0.0
28/12:00am 26.6 21.1 10.7 37 8.9 S 30 35 16 19 1014.1 1014.0 0.0
 
Date/Time
EST
Temp
°C
App
Temp
°C
Dew
Point
°C
Rel
Hum
%
Delta-T
°C
Wind Press
QNH
hPa
Press
MSL
hPa
Rain since
9am
mm
Dir  Spd
km/h
Gust
km/h
Spd
kts
Gust
kts
27/11:30pm 26.9 22.0 13.6 44 7.9 S 32 37 17 20 1013.9 1013.8 0.0
27/11:00pm 25.6 25.5 21.5 78 2.7 S 24 28 13 15 1013.9 1013.8 0.0
27/10:30pm 25.9 28.3 20.9 74 3.3 SSW 9 15 5 8 1013.7 1013.6 0.0
27/10:00pm 25.6 29.2 19.7 70 3.8 CALM 0 6 0 3 1013.5 1013.4 0.0
27/09:30pm 25.5 27.7 19.6 70 3.8 NNW 7 9 4 5 1013.3 1013.2 0.0
27/09:00pm 25.7 27.7 20.0 71 3.7 N 9 13 5 7 1012.9 1012.8 0.0
27/08:30pm 25.7 26.9 19.8 70 3.8 N 13 17 7 9 1012.6 1012.5 0.0
27/08:00pm 25.9 26.5 19.5 68 4.1 NNW 15 17 8 9 1012.1 1012.0 0.0
27/07:30pm 26.3 26.2 18.7 63 4.9 N 17 20 9 11 1011.7 1011.6 0.0
27/07:00pm 26.2 25.9 18.3 61 5.0 N 17 20 9 11 1011.4 1011.3 0.0
27/06:30pm 26.4 25.6 18.0 60 5.3 NNE 19 22 10 12 1011.1 1011.0 0.0
27/06:00pm 26.5 26.1 18.1 60 5.3 NNE 17 20 9 11 1010.9 1010.8 0.0
27/05:30pm 27.2 26.5 17.4 55 6.2 N 17 20 9 11 1010.6 1010.5 0.0
27/05:00pm 27.4 26.4 16.7 52 6.7 N 17 20 9 11 1010.3 1010.2 0.0
27/04:30pm 26.9 26.5 17.1 55 6.1 NNE 15 17 8 9 1010.3 1010.2 0.0
27/04:00pm 26.7 26.2 16.9 55 6.1 NE 15 17 8 9 1010.3 1010.2 0.0
27/03:30pm 26.7 25.9 16.0 52 6.6 NE 15 15 8 8 1010.3 1010.2 0.0
27/03:00pm 27.5 27.7 16.8 52 6.7 ENE 11 13 6 7 1010.4 1010.3 0.0
27/02:30pm 28.7 29.2 15.6 45 8.0 ESE 7 13 4 7 1010.8 1010.7 0.0
27/02:00pm 28.8 29.1 15.0 43 8.4 ESE 7 13 4 7 1011.1 1011.0 0.0
27/01:30pm 28.3 28.7 16.2 47 7.5 ESE 9 13 5 7 1011.5 1011.4 0.0
27/01:00pm 27.5 28.2 16.1 49 7.0 SE 7 13 4 7 1011.9 1011.8 0.0
27/12:30pm 26.8 26.6 15.8 51 6.7 S 11 15 6 8 1012.5 1012.4 0.0
27/12:00pm 26.5 26.0 15.8 51 6.5 S 13 17 7 9 1012.8 1012.7 0.0
27/11:30am 26.0 24.5 16.3 55 6.0 S 19 20 10 11 1013.4 1013.3 0.0
27/11:00am 26.0 24.3 15.7 53 6.3 S 19 20 10 11 1013.8 1013.7 0.0
27/10:30am 25.5 24.6 16.9 59 5.3 SSW 17 20 9 11 1014.1 1014.0 0.0
27/10:00am 25.4 24.6 17.1 60 5.2 SSW 17 20 9 11 1014.2 1014.1 0.0
27/09:30am 25.1 25.4 19.5 71 3.6 SW 17 20 9 11 1014.2 1014.1 0.0
27/09:00am 23.9 24.8 20.8 83 2.0 SW 17 19 9 10 1014.1 1014.0 0.0
27/08:30am 22.8 23.7 20.9 89 1.2 SW 17 19 9 10 1014.0 1013.9 0.0
27/08:00am 22.4 23.5 20.5 89 1.2 WSW 15 19 8 10 1013.9 1013.8 0.0
27/07:30am 22.9 24.7 21.2 90 1.1 SW 13 15 7 8 1013.5 1013.4 0.0

Other Formats:

Comma delimited format used in spreadsheet applications
http://www.bom.gov.au/fwo/IDQ60801/IDQ60801.94295.axf

JavaScript Object Notation format (JSON) in row-major order
http://www.bom.gov.au/fwo/IDQ60801/IDQ60801.94295.json